createdAt,value
2018-07-26T00:00:34.716Z,11.00
2018-07-26T00:03:10.277Z,10.43
2018-07-26T00:05:45.791Z,10.40
2018-07-26T00:08:21.677Z,10.67
2018-07-26T00:10:57.283Z,11.60
2018-07-26T00:13:32.767Z,11.20
2018-07-26T00:16:08.604Z,11.10
2018-07-26T00:18:44.793Z,11.37
2018-07-26T00:21:20.163Z,10.33
2018-07-26T00:23:55.591Z,12.20
2018-07-26T00:26:31.358Z,11.80
2018-07-26T00:29:06.749Z,12.13
2018-07-26T00:31:42.180Z,12.00
2018-07-26T00:34:17.953Z,13.07
2018-07-26T00:36:53.212Z,13.33
2018-07-26T00:39:28.641Z,12.40
2018-07-26T00:42:04.437Z,13.13
2018-07-26T00:44:40.442Z,13.37
2018-07-26T00:47:16.629Z,13.00
2018-07-26T00:49:52.191Z,12.77
2018-07-26T00:52:27.188Z,13.30
2018-07-26T00:55:02.178Z,13.17
2018-07-26T00:57:37.686Z,13.10
2018-07-26T01:00:13.452Z,13.40
2018-07-26T01:02:48.790Z,13.27
2018-07-26T01:05:23.796Z,13.57
2018-07-26T01:07:58.664Z,12.77
2018-07-26T01:10:33.367Z,13.00
2018-07-26T01:13:08.429Z,13.73
2018-07-26T01:15:43.381Z,13.50
2018-07-26T01:18:18.979Z,13.60
2018-07-26T01:20:56.965Z,13.43
2018-07-26T01:23:32.133Z,13.07
2018-07-26T01:26:07.607Z,14.50
2018-07-26T01:28:42.480Z,13.90
2018-07-26T01:31:17.537Z,13.00
2018-07-26T01:33:52.990Z,14.20
2018-07-26T01:36:28.377Z,14.77
2018-07-26T01:39:03.826Z,14.17
2018-07-26T01:41:39.323Z,14.00
2018-07-26T01:44:17.293Z,14.40
2018-07-26T01:46:52.371Z,13.27
2018-07-26T01:49:27.093Z,14.80
2018-07-26T01:52:01.899Z,14.83
2018-07-26T01:54:37.207Z,14.30
2018-07-26T01:57:11.915Z,14.50
2018-07-26T01:59:46.818Z,14.57
2018-07-26T02:02:22.061Z,14.77
2018-07-26T02:04:57.161Z,15.37
2018-07-26T02:07:32.141Z,13.97
2018-07-26T02:10:07.223Z,14.47
2018-07-26T02:12:42.252Z,14.20
2018-07-26T02:15:17.227Z,14.20
2018-07-26T02:17:52.255Z,14.43
2018-07-26T02:20:27.572Z,13.10
2018-07-26T02:23:03.025Z,14.63
2018-07-26T02:25:37.947Z,14.90
2018-07-26T02:28:13.250Z,14.43
2018-07-26T02:30:47.962Z,14.23
2018-07-26T02:33:22.737Z,13.30
2018-07-26T02:35:57.783Z,14.40
2018-07-26T02:38:39.371Z,14.93
2018-07-26T02:41:14.100Z,14.07
2018-07-26T02:43:49.251Z,14.40
2018-07-26T02:46:24.360Z,14.13
2018-07-26T02:48:59.515Z,14.50
2018-07-26T02:51:34.356Z,14.70
2018-07-26T02:54:09.526Z,14.10
2018-07-26T02:56:44.661Z,15.70
2018-07-26T02:59:20.183Z,15.40
2018-07-26T03:01:55.134Z,15.40
2018-07-26T03:04:30.169Z,14.97
2018-07-26T03:07:05.450Z,15.63
2018-07-26T03:09:41.033Z,16.60
2018-07-26T03:12:15.825Z,16.03
2018-07-26T03:14:50.858Z,15.40
2018-07-26T03:17:25.839Z,15.87
2018-07-26T03:20:01.134Z,16.40
2018-07-26T03:22:36.106Z,15.67
2018-07-26T03:25:11.888Z,17.03
2018-07-26T03:27:46.901Z,16.90
2018-07-26T03:30:22.294Z,18.67
2018-07-26T03:32:57.249Z,18.90
2018-07-26T03:35:32.168Z,18.47
2018-07-26T03:38:07.179Z,18.50
2018-07-26T03:40:41.986Z,19.27
2018-07-26T03:43:16.962Z,19.77
2018-07-26T03:45:51.966Z,17.90
2018-07-26T03:48:27.010Z,18.60
2018-07-26T03:51:02.111Z,19.07
2018-07-26T03:53:37.251Z,18.27
2018-07-26T03:56:12.286Z,18.90
2018-07-26T03:58:47.444Z,20.77
2018-07-26T04:01:22.670Z,21.17
2018-07-26T04:03:57.589Z,20.83
2018-07-26T04:06:32.667Z,20.20
2018-07-26T04:09:10.813Z,19.83
2018-07-26T04:11:46.418Z,21.17
2018-07-26T04:14:21.480Z,21.10
2018-07-26T04:16:56.782Z,20.10
2018-07-26T04:19:31.652Z,19.43
2018-07-26T04:22:06.715Z,19.27
2018-07-26T04:24:41.702Z,20.37
2018-07-26T04:27:16.819Z,18.90
2018-07-26T04:29:51.751Z,20.43
2018-07-26T04:32:27.129Z,19.63
2018-07-26T04:35:02.065Z,20.43
2018-07-26T04:37:36.958Z,20.13
2018-07-26T04:40:12.200Z,19.77
2018-07-26T04:42:47.849Z,18.43
2018-07-26T04:45:22.846Z,19.03
2018-07-26T04:47:57.954Z,18.20
2018-07-26T04:50:32.657Z,19.30
2018-07-26T04:53:07.827Z,19.17
2018-07-26T04:55:42.693Z,19.87
2018-07-26T04:58:17.865Z,20.10
2018-07-26T05:00:53.620Z,19.97
2018-07-26T05:03:28.806Z,19.50
2018-07-26T05:06:03.813Z,19.13
2018-07-26T05:08:38.862Z,18.97
2018-07-26T05:11:14.141Z,18.43
2018-07-26T05:13:49.261Z,19.40
2018-07-26T05:16:24.123Z,17.37
2018-07-26T05:18:59.515Z,17.87
2018-07-26T05:21:34.758Z,18.13
2018-07-26T05:24:10.265Z,17.10
2018-07-26T05:26:45.391Z,17.63
2018-07-26T05:29:20.817Z,17.83
2018-07-26T05:31:56.166Z,17.70
2018-07-26T05:34:31.168Z,16.90
2018-07-26T05:37:06.190Z,16.17
2018-07-26T05:39:41.490Z,16.77
2018-07-26T05:42:16.613Z,15.40
2018-07-26T05:44:51.885Z,15.10
2018-07-26T05:47:26.890Z,15.10
2018-07-26T05:50:02.008Z,16.27
2018-07-26T05:52:37.371Z,15.57
2018-07-26T05:55:13.049Z,15.13
2018-07-26T05:57:48.306Z,15.40
2018-07-26T06:00:23.463Z,14.80
2018-07-26T06:02:58.426Z,15.10
2018-07-26T06:05:33.589Z,13.87
2018-07-26T06:08:08.642Z,14.07
2018-07-26T06:10:43.796Z,13.33
2018-07-26T06:13:19.135Z,13.60
2018-07-26T06:15:58.442Z,13.20
2018-07-26T06:18:33.767Z,13.37
2018-07-26T06:21:08.696Z,12.97
2018-07-26T06:23:43.668Z,13.40
2018-07-26T06:26:18.985Z,13.10
2018-07-26T06:28:53.852Z,13.43
2018-07-26T06:31:29.134Z,12.80
2018-07-26T06:34:04.497Z,12.80
2018-07-26T06:36:39.563Z,12.00
2018-07-26T06:39:14.827Z,12.53
2018-07-26T06:41:49.790Z,12.90
2018-07-26T06:44:24.868Z,13.17
2018-07-26T06:47:00.225Z,11.50
2018-07-26T06:49:35.440Z,12.83
2018-07-26T06:52:11.077Z,12.27
2018-07-26T06:54:46.286Z,12.63
2018-07-26T06:57:21.102Z,11.87
2018-07-26T06:59:56.131Z,10.93
2018-07-26T07:02:31.552Z,11.90
2018-07-26T07:05:06.540Z,13.03
2018-07-26T07:07:41.355Z,11.70
2018-07-26T07:10:16.436Z,10.70
2018-07-26T07:12:51.072Z,10.50
2018-07-26T07:15:26.710Z,10.00
2018-07-26T07:18:02.235Z,10.70
2018-07-26T07:20:39.025Z,8.97
2018-07-26T07:23:13.870Z,8.97
2018-07-26T07:25:49.173Z,9.33
2018-07-26T07:28:27.396Z,8.63
2018-07-26T07:31:02.492Z,9.00
2018-07-26T07:33:39.325Z,8.70
2018-07-26T07:36:15.136Z,8.83
2018-07-26T07:38:50.229Z,8.90
2018-07-26T07:41:25.377Z,8.57
2018-07-26T07:44:00.369Z,7.70
2018-07-26T07:46:35.806Z,8.17
2018-07-26T07:49:11.882Z,8.10
2018-07-26T07:51:46.882Z,8.53
2018-07-26T07:54:21.953Z,8.47
2018-07-26T07:56:57.165Z,8.10
2018-07-26T07:59:32.282Z,7.87
2018-07-26T08:02:07.825Z,8.27
2018-07-26T08:04:42.993Z,8.00
2018-07-26T08:07:17.933Z,7.70
2018-07-26T08:09:52.948Z,7.90
2018-07-26T08:12:33.839Z,7.43
2018-07-26T08:15:10.522Z,8.30
2018-07-26T08:17:45.983Z,7.27
2018-07-26T08:20:21.111Z,7.60
2018-07-26T08:22:56.434Z,6.50
2018-07-26T08:25:31.771Z,7.50
2018-07-26T08:28:06.760Z,8.03
2018-07-26T08:30:41.833Z,6.90
2018-07-26T08:33:16.926Z,7.20
2018-07-26T08:35:51.782Z,7.10
2018-07-26T08:38:26.698Z,6.40
2018-07-26T08:41:01.575Z,6.40
2018-07-26T08:43:36.818Z,6.87
2018-07-26T08:46:11.755Z,6.27
2018-07-26T08:48:46.796Z,6.30
2018-07-26T08:51:21.836Z,6.10
2018-07-26T08:53:56.820Z,6.90
2018-07-26T08:56:32.022Z,6.70
2018-07-26T08:59:06.940Z,6.57
2018-07-26T09:01:42.196Z,6.53
2018-07-26T09:04:17.154Z,7.37
2018-07-26T09:06:52.135Z,6.30
2018-07-26T09:09:27.155Z,6.63
2018-07-26T09:12:02.200Z,6.77
2018-07-26T09:14:37.130Z,6.27
2018-07-26T09:17:13.546Z,6.60
2018-07-26T09:19:48.945Z,6.50
2018-07-26T09:22:24.190Z,6.70
2018-07-26T09:24:58.931Z,6.53
2018-07-26T09:27:38.975Z,6.50
2018-07-26T09:30:13.727Z,6.50
2018-07-26T09:32:48.613Z,5.93
2018-07-26T09:35:24.001Z,5.77
2018-07-26T09:37:59.802Z,6.37
2018-07-26T09:40:34.918Z,6.47
2018-07-26T09:43:09.837Z,6.20
2018-07-26T09:45:44.920Z,6.07
2018-07-26T09:48:20.571Z,6.10
2018-07-26T09:50:55.917Z,6.10
2018-07-26T09:53:31.301Z,4.90
2018-07-26T09:56:06.451Z,5.83
2018-07-26T09:58:41.497Z,6.30
2018-07-26T10:01:22.059Z,6.00
2018-07-26T10:03:57.634Z,5.47
2018-07-26T10:06:32.729Z,6.40
2018-07-26T10:09:09.746Z,6.20
2018-07-26T10:11:44.783Z,5.57
2018-07-26T10:14:19.716Z,6.20
2018-07-26T10:16:54.843Z,5.73
2018-07-26T10:19:30.405Z,5.17
2018-07-26T10:22:05.413Z,6.27
2018-07-26T10:24:40.760Z,5.72
2018-07-26T10:27:16.103Z,5.13
2018-07-26T10:29:51.294Z,5.40
2018-07-26T10:32:26.248Z,5.90
2018-07-26T10:35:01.422Z,5.40
2018-07-26T10:37:36.279Z,5.10
2018-07-26T10:40:11.446Z,5.13
2018-07-26T10:42:47.044Z,5.00
2018-07-26T10:45:22.105Z,5.27
2018-07-26T10:47:57.206Z,4.80
2018-07-26T10:50:32.134Z,5.03
2018-07-26T10:53:07.397Z,5.07
2018-07-26T10:55:42.776Z,4.90
2018-07-26T10:58:19.118Z,5.08
2018-07-26T11:00:54.017Z,5.07
2018-07-26T11:03:30.137Z,4.85
2018-07-26T11:06:05.303Z,4.37
2018-07-26T11:08:40.553Z,4.78
2018-07-26T11:11:16.477Z,4.90
2018-07-26T11:13:52.158Z,4.17
2018-07-26T11:16:27.899Z,4.55
2018-07-26T11:19:03.400Z,4.90
2018-07-26T11:21:38.702Z,4.95
2018-07-26T11:24:14.386Z,5.05
2018-07-26T11:26:49.072Z,4.80
2018-07-26T11:29:24.958Z,4.40
2018-07-26T11:32:00.674Z,4.50
2018-07-26T11:34:36.762Z,5.12
2018-07-26T11:37:12.523Z,5.40
2018-07-26T11:39:53.087Z,4.90
2018-07-26T11:42:28.710Z,4.85
2018-07-26T11:45:05.439Z,4.50
2018-07-26T11:47:41.229Z,5.40
2018-07-26T11:50:17.046Z,5.28
2018-07-26T11:52:52.450Z,4.53
2018-07-26T11:55:28.287Z,4.90
2018-07-26T11:58:03.453Z,4.60
2018-07-26T12:00:38.862Z,4.97
2018-07-26T12:03:14.862Z,5.40
2018-07-26T12:05:50.495Z,4.65
2018-07-26T12:08:25.979Z,4.80
2018-07-26T12:11:01.553Z,4.35
2018-07-26T12:13:37.930Z,4.67
2018-07-26T12:16:13.369Z,4.85
2018-07-26T12:18:49.051Z,4.83
2018-07-26T12:21:25.244Z,4.35
2018-07-26T12:24:00.622Z,4.50
2018-07-26T12:26:36.379Z,4.70
2018-07-26T12:29:11.929Z,4.25
2018-07-26T12:31:47.354Z,4.40
2018-07-26T12:34:22.974Z,4.47
2018-07-26T12:36:58.862Z,4.50
2018-07-26T12:39:35.936Z,4.50
2018-07-26T12:42:11.979Z,4.05
2018-07-26T12:44:47.583Z,4.08
2018-07-26T12:47:23.316Z,4.20
2018-07-26T12:49:58.624Z,4.40
2018-07-26T12:52:34.108Z,4.20
2018-07-26T12:55:09.619Z,4.60
2018-07-26T12:57:44.506Z,4.60
2018-07-26T13:00:20.002Z,5.07
2018-07-26T13:02:56.446Z,4.35
2018-07-26T13:05:32.399Z,4.17
2018-07-26T13:08:07.476Z,4.53
2018-07-26T13:10:42.425Z,4.77
2018-07-26T13:13:17.512Z,4.40
2018-07-26T13:15:52.508Z,4.83
2018-07-26T13:18:27.428Z,4.13
2018-07-26T13:21:02.427Z,3.85
2018-07-26T13:23:37.917Z,4.57
2018-07-26T13:26:12.484Z,4.40
2018-07-26T13:28:48.005Z,4.00
2018-07-26T13:31:23.156Z,4.60
2018-07-26T13:33:58.117Z,4.40
2018-07-26T13:36:34.139Z,4.20
2018-07-26T13:39:11.775Z,3.87
2018-07-26T13:41:46.995Z,4.00
2018-07-26T13:44:22.724Z,4.40
2018-07-26T13:46:58.114Z,4.77
2018-07-26T13:49:32.997Z,4.00
2018-07-26T13:52:09.048Z,4.37
2018-07-26T13:54:44.364Z,4.63
2018-07-26T13:57:19.552Z,4.50
2018-07-26T13:59:55.004Z,5.07
2018-07-26T14:02:30.130Z,4.60
2018-07-26T14:05:05.620Z,4.20
2018-07-26T14:07:40.526Z,4.17
2018-07-26T14:10:15.569Z,3.90
2018-07-26T14:12:50.582Z,3.93
2018-07-26T14:15:25.569Z,3.65
2018-07-26T14:18:01.211Z,4.30
2018-07-26T14:20:36.716Z,4.20
2018-07-26T14:23:16.284Z,4.33
2018-07-26T14:25:51.618Z,4.37
2018-07-26T14:28:26.935Z,4.45
2018-07-26T14:31:01.865Z,4.03
2018-07-26T14:33:37.102Z,4.20
2018-07-26T14:36:12.166Z,4.30
2018-07-26T14:38:47.773Z,4.47
2018-07-26T14:41:22.830Z,4.10
2018-07-26T14:43:58.667Z,4.67
2018-07-26T14:46:34.489Z,4.30
2018-07-26T14:49:09.990Z,4.37
2018-07-26T14:51:46.330Z,4.95
2018-07-26T14:54:22.158Z,4.37
2018-07-26T14:56:57.803Z,4.92
2018-07-26T14:59:33.347Z,4.45
2018-07-26T15:02:09.476Z,4.70
2018-07-26T15:04:45.061Z,4.35
2018-07-26T15:07:20.411Z,4.90
2018-07-26T15:10:01.881Z,4.10
2018-07-26T15:12:37.746Z,5.00
2018-07-26T15:15:14.016Z,4.78
2018-07-26T15:17:49.278Z,5.03
2018-07-26T15:20:25.284Z,5.12
2018-07-26T15:23:00.982Z,4.92
2018-07-26T15:25:36.897Z,4.30
2018-07-26T15:28:13.099Z,4.37
2018-07-26T15:30:48.887Z,5.00
2018-07-26T15:33:30.257Z,4.80
2018-07-26T15:36:06.636Z,5.25
2018-07-26T15:38:42.556Z,5.15
2018-07-26T15:41:18.386Z,4.10
2018-07-26T15:43:53.861Z,4.20
2018-07-26T15:46:29.302Z,4.10
2018-07-26T15:49:04.956Z,3.98
2018-07-26T15:51:39.782Z,3.30
2018-07-26T15:54:14.952Z,2.95
2018-07-26T15:56:50.783Z,3.65
2018-07-26T15:59:25.581Z,2.77
2018-07-26T16:02:00.503Z,2.58
2018-07-26T16:04:35.574Z,2.30
2018-07-26T16:07:10.922Z,2.17
2018-07-26T16:09:47.267Z,2.50
2018-07-26T16:12:22.362Z,2.00
2018-07-26T16:14:57.757Z,2.50
2018-07-26T16:17:33.449Z,2.47
2018-07-26T16:20:10.943Z,2.65
2018-07-26T16:22:45.766Z,2.40
2018-07-26T16:25:23.410Z,2.50
2018-07-26T16:27:58.787Z,2.55
2018-07-26T16:30:34.551Z,2.27
2018-07-26T16:33:09.689Z,2.40
2018-07-26T16:35:45.298Z,2.60
2018-07-26T16:38:20.972Z,2.20
2018-07-26T16:40:56.983Z,2.35
2018-07-26T16:43:32.316Z,2.10
2018-07-26T16:46:08.373Z,2.30
2018-07-26T16:48:43.668Z,2.60
2018-07-26T16:51:19.136Z,3.33
2018-07-26T16:53:55.002Z,3.05
2018-07-26T16:56:30.793Z,2.80
2018-07-26T16:59:06.683Z,2.70
2018-07-26T17:01:42.362Z,2.80
2018-07-26T17:04:18.165Z,2.90
2018-07-26T17:06:52.972Z,2.50
2018-07-26T17:09:28.928Z,2.75
2018-07-26T17:12:05.236Z,3.08
2018-07-26T17:14:41.550Z,2.52
2018-07-26T17:17:17.728Z,2.50
2018-07-26T17:19:53.866Z,2.70
2018-07-26T17:22:29.328Z,2.70
2018-07-26T17:25:05.530Z,3.20
2018-07-26T17:27:41.243Z,3.10
2018-07-26T17:30:42.513Z,3.33
2018-07-26T17:33:18.817Z,3.33
2018-07-26T17:36:05.720Z,3.85
2018-07-26T17:38:43.903Z,4.97
2018-07-26T17:41:22.723Z,4.87
2018-07-26T17:44:04.933Z,5.62
2018-07-26T17:46:40.635Z,5.10
2018-07-26T17:49:17.016Z,6.30
2018-07-26T17:52:01.698Z,6.80
2018-07-26T17:54:38.799Z,6.65
2018-07-26T17:57:14.431Z,6.72
2018-07-26T17:59:55.190Z,6.20
2018-07-26T18:02:31.488Z,6.67
2018-07-26T18:05:08.243Z,6.03
2018-07-26T18:07:45.457Z,6.05
2018-07-26T18:10:21.367Z,7.35
2018-07-26T18:12:56.782Z,5.73
2018-07-26T18:15:33.220Z,5.80
2018-07-26T18:18:09.939Z,6.97
2018-07-26T18:20:44.705Z,6.70
2018-07-26T18:23:20.732Z,7.40
2018-07-26T18:25:56.538Z,6.73
2018-07-26T18:28:32.585Z,6.78
2018-07-26T18:31:08.697Z,6.37
2018-07-26T18:33:45.073Z,6.90
2018-07-26T18:36:21.341Z,6.20
2018-07-26T18:39:02.015Z,7.27
2018-07-26T18:41:37.234Z,7.03
2018-07-26T18:44:13.157Z,7.77
2018-07-26T18:46:49.369Z,6.70
2018-07-26T18:49:29.168Z,7.00
2018-07-26T18:52:06.026Z,7.10
2018-07-26T18:54:41.887Z,8.00
2018-07-26T18:57:17.532Z,7.47
2018-07-26T18:59:53.618Z,7.13
2018-07-26T19:02:29.188Z,7.63
2018-07-26T19:05:14.080Z,7.63
2018-07-26T19:07:49.614Z,7.20
2018-07-26T19:10:25.242Z,7.30
2018-07-26T19:13:01.933Z,7.43
2018-07-26T19:15:37.229Z,7.50
2018-07-26T19:18:14.453Z,7.20
2018-07-26T19:20:49.969Z,7.70
2018-07-26T19:23:27.140Z,7.20
2018-07-26T19:26:06.373Z,6.80
2018-07-26T19:28:44.860Z,6.83
2018-07-26T19:31:20.006Z,7.00
2018-07-26T19:34:02.381Z,7.20
2018-07-26T19:36:39.365Z,7.00
2018-07-26T19:39:15.944Z,7.10
2018-07-26T19:41:53.703Z,6.23
2018-07-26T19:44:30.486Z,6.60
2018-07-26T19:47:05.607Z,7.30
2018-07-26T19:49:40.450Z,7.60
2018-07-26T19:52:18.889Z,7.50
2018-07-26T19:54:59.249Z,7.47
2018-07-26T19:57:34.236Z,7.20
2018-07-26T20:00:10.367Z,7.77
2018-07-26T20:02:46.208Z,7.20
2018-07-26T20:05:25.999Z,8.10
2018-07-26T20:08:00.987Z,8.23
2018-07-26T20:10:35.956Z,7.43
2018-07-26T20:13:11.010Z,8.57
2018-07-26T20:15:46.324Z,7.70
2018-07-26T20:18:21.900Z,8.30
2018-07-26T20:20:57.155Z,8.27
2018-07-26T20:23:32.167Z,8.00
2018-07-26T20:26:07.364Z,8.23
2018-07-26T20:28:42.274Z,8.80
2018-07-26T20:31:17.867Z,9.20
2018-07-26T20:33:53.658Z,9.30
2018-07-26T20:36:29.082Z,9.37
2018-07-26T20:39:05.585Z,8.50
2018-07-26T20:41:41.043Z,8.37
2018-07-26T20:44:16.060Z,8.43
2018-07-26T20:46:51.103Z,8.57
2018-07-26T20:49:26.265Z,7.70
2018-07-26T20:52:01.459Z,8.47
2018-07-26T20:54:36.972Z,7.90
2018-07-26T20:57:11.800Z,8.20
2018-07-26T20:59:46.992Z,8.40
2018-07-26T21:02:22.543Z,8.90
2018-07-26T21:04:58.084Z,8.33
2018-07-26T21:07:33.107Z,8.50
2018-07-26T21:10:09.103Z,8.00
2018-07-26T21:12:43.950Z,7.70
2018-07-26T21:15:18.991Z,6.27
2018-07-26T21:17:54.227Z,6.77
2018-07-26T21:20:29.280Z,9.47
2018-07-26T21:23:04.089Z,8.00
2018-07-26T21:25:39.272Z,6.10
2018-07-26T21:28:14.982Z,5.23
2018-07-26T21:30:50.191Z,5.80
2018-07-26T21:33:25.491Z,5.93
2018-07-26T21:36:01.011Z,5.73
2018-07-26T21:38:36.211Z,5.90
2018-07-26T21:41:11.471Z,5.20
2018-07-26T21:43:47.120Z,5.23
2018-07-26T21:46:21.794Z,5.23
2018-07-26T21:48:56.917Z,4.83
2018-07-26T21:51:31.831Z,5.57
2018-07-26T21:54:06.885Z,5.17
2018-07-26T21:56:42.258Z,5.00
2018-07-26T21:59:17.206Z,4.50
2018-07-26T22:01:52.714Z,5.20
2018-07-26T22:04:28.490Z,5.07
2018-07-26T22:07:03.900Z,4.80
2018-07-26T22:09:38.965Z,4.80
2018-07-26T22:12:14.163Z,4.70
2018-07-26T22:14:50.038Z,5.27
2018-07-26T22:17:25.148Z,4.80
2018-07-26T22:20:00.182Z,5.03
2018-07-26T22:22:35.461Z,4.90
2018-07-26T22:25:10.631Z,4.77
2018-07-26T22:27:45.456Z,5.00
2018-07-26T22:30:20.635Z,5.70
2018-07-26T22:32:55.452Z,4.80
2018-07-26T22:35:30.406Z,4.70
2018-07-26T22:38:05.431Z,5.30
2018-07-26T22:40:40.759Z,5.60
2018-07-26T22:43:15.569Z,5.50
2018-07-26T22:45:50.977Z,4.97
2018-07-26T22:48:25.737Z,5.20
2018-07-26T22:51:00.620Z,5.40
2018-07-26T22:53:35.806Z,5.23
2018-07-26T22:56:11.093Z,5.00
2018-07-26T22:58:46.218Z,5.60
2018-07-26T23:01:21.332Z,6.03
2018-07-26T23:03:56.169Z,5.57
2018-07-26T23:06:31.200Z,5.53
2018-07-26T23:09:07.504Z,5.17
2018-07-26T23:11:42.504Z,5.37
2018-07-26T23:14:17.603Z,5.90
2018-07-26T23:16:52.736Z,5.20
2018-07-26T23:19:28.014Z,5.10
2018-07-26T23:22:03.345Z,5.53
2018-07-26T23:24:38.526Z,5.70
2018-07-26T23:27:14.210Z,5.40
2018-07-26T23:29:49.478Z,5.13
2018-07-26T23:32:24.426Z,5.67
2018-07-26T23:34:59.672Z,6.17
2018-07-26T23:37:34.678Z,5.23
2018-07-26T23:40:11.197Z,4.70
2018-07-26T23:42:45.604Z,5.33
2018-07-26T23:45:20.497Z,5.60
2018-07-26T23:47:55.897Z,4.60
2018-07-26T23:50:30.788Z,5.57
2018-07-26T23:53:06.410Z,5.07
2018-07-26T23:55:41.257Z,5.00
2018-07-26T23:58:16.593Z,4.73
